createdAt,value
2023-03-08T00:00:22.448Z,81.10
2023-03-08T00:02:48.763Z,61.75
2023-03-08T00:05:15.083Z,50.38
2023-03-08T00:07:41.365Z,56.90
2023-03-08T00:10:08.439Z,41.50
2023-03-08T00:12:34.738Z,45.58
2023-03-08T00:15:01.019Z,23.40
2023-03-08T00:17:27.346Z,14.13
2023-03-08T00:19:53.685Z,11.35
2023-03-08T00:22:20.014Z,10.15
2023-03-08T00:24:46.416Z,10.65
2023-03-08T00:27:12.718Z,9.82
2023-03-08T00:29:39.581Z,8.60
2023-03-08T00:32:06.144Z,10.88
2023-03-08T00:34:32.475Z,12.05
2023-03-08T00:36:58.899Z,11.48
2023-03-08T00:39:25.258Z,11.20
2023-03-08T00:41:51.564Z,10.82
2023-03-08T00:44:17.889Z,10.43
2023-03-08T00:46:44.359Z,12.63
2023-03-08T00:49:13.190Z,11.43
2023-03-08T00:51:39.565Z,11.02
2023-03-08T00:54:06.020Z,12.00
2023-03-08T00:56:32.329Z,10.02
2023-03-08T00:58:58.771Z,10.85
2023-03-08T01:01:25.405Z,11.63
2023-03-08T01:03:51.948Z,13.13
2023-03-08T01:06:18.421Z,11.32
2023-03-08T01:08:44.913Z,12.85
2023-03-08T01:11:24.417Z,11.70
2023-03-08T01:13:51.999Z,13.70
2023-03-08T01:16:22.156Z,16.17
2023-03-08T01:18:49.035Z,13.57
2023-03-08T01:21:15.894Z,12.38
2023-03-08T01:23:42.883Z,12.82
2023-03-08T01:26:13.503Z,12.85
2023-03-08T01:28:40.375Z,16.85
2023-03-08T01:31:14.445Z,13.15
2023-03-08T01:33:42.303Z,12.73
2023-03-08T01:36:11.541Z,16.23
2023-03-08T01:38:38.747Z,14.70
2023-03-08T01:41:06.499Z,13.40
2023-03-08T01:43:36.116Z,14.73
2023-03-08T01:46:26.011Z,15.98
2023-03-08T01:49:11.437Z,18.35
2023-03-08T01:52:02.867Z,15.90
2023-03-08T01:54:49.076Z,19.65
2023-03-08T01:57:38.660Z,15.98
2023-03-08T02:00:11.222Z,17.20
2023-03-08T02:02:47.761Z,16.20
2023-03-08T02:05:16.151Z,16.65
2023-03-08T02:07:44.426Z,16.42
2023-03-08T02:10:12.889Z,17.00
2023-03-08T02:12:39.868Z,15.20
2023-03-08T02:15:09.511Z,17.27
2023-03-08T02:17:41.185Z,17.00
2023-03-08T02:20:10.648Z,16.52
2023-03-08T02:22:41.915Z,18.10
2023-03-08T02:27:45.578Z,18.20
2023-03-08T02:30:14.323Z,18.55
2023-03-08T02:32:40.713Z,18.55
2023-03-08T02:35:07.377Z,17.48
2023-03-08T02:37:34.080Z,16.58
2023-03-08T02:40:02.510Z,15.00
2023-03-08T02:42:28.848Z,19.67
2023-03-08T02:44:55.160Z,19.05
2023-03-08T02:47:21.449Z,19.48
2023-03-08T02:49:47.876Z,17.98
2023-03-08T02:52:14.215Z,17.05
2023-03-08T02:54:42.208Z,15.70
2023-03-08T02:57:08.537Z,16.75
2023-03-08T02:59:36.937Z,13.35
2023-03-08T03:02:03.419Z,12.48
2023-03-08T03:04:31.230Z,15.30
2023-03-08T03:06:59.133Z,14.35
2023-03-08T03:09:26.051Z,16.65
2023-03-08T03:11:52.622Z,11.13
2023-03-08T03:14:19.021Z,11.27
2023-03-08T03:16:45.874Z,14.50
2023-03-08T03:19:13.588Z,11.05
2023-03-08T03:21:40.212Z,11.20
2023-03-08T03:24:07.557Z,10.80
2023-03-08T03:26:42.111Z,12.10
2023-03-08T03:29:08.967Z,11.32
2023-03-08T03:31:37.964Z,12.15
2023-03-08T03:34:04.678Z,13.00
2023-03-08T03:36:31.658Z,14.52
2023-03-08T03:38:58.735Z,10.35
2023-03-08T03:41:25.581Z,7.55
2023-03-08T03:44:01.343Z,8.80
2023-03-08T03:46:29.108Z,8.32
2023-03-08T03:48:57.442Z,8.07
2023-03-08T03:51:26.483Z,9.07
2023-03-08T03:54:07.230Z,10.68
2023-03-08T03:56:34.630Z,9.30
2023-03-08T03:59:01.498Z,9.13
2023-03-08T04:01:30.631Z,7.97
2023-03-08T04:04:04.538Z,8.40
2023-03-08T04:06:34.702Z,8.30
2023-03-08T04:09:04.670Z,9.77
2023-03-08T04:11:36.522Z,7.78
2023-03-08T04:14:05.133Z,7.75
2023-03-08T04:16:34.853Z,10.13
2023-03-08T04:19:13.173Z,9.00
2023-03-08T04:21:46.471Z,11.65
2023-03-08T04:24:15.164Z,9.07
2023-03-08T04:26:41.568Z,9.73
2023-03-08T04:29:08.066Z,10.32
2023-03-08T04:31:36.935Z,8.95
2023-03-08T04:34:07.561Z,8.32
2023-03-08T04:36:34.518Z,11.95
2023-03-08T04:39:00.883Z,9.20
2023-03-08T04:41:27.828Z,9.70
2023-03-08T04:44:01.875Z,8.95
2023-03-08T04:46:36.373Z,8.35
2023-03-08T04:49:03.673Z,10.75
2023-03-08T04:51:36.030Z,10.48
2023-03-08T04:54:05.023Z,9.05
2023-03-08T04:56:33.528Z,9.07
2023-03-08T04:59:00.184Z,11.23
2023-03-08T05:01:27.525Z,11.43
2023-03-08T05:03:54.598Z,11.57
2023-03-08T05:06:27.684Z,11.32
2023-03-08T05:08:56.157Z,9.45
2023-03-08T05:11:27.103Z,12.52
2023-03-08T05:13:56.061Z,10.95
2023-03-08T05:16:23.695Z,12.07
2023-03-08T05:18:50.816Z,11.98
2023-03-08T05:21:22.115Z,11.98
2023-03-08T05:23:53.869Z,12.85
2023-03-08T05:26:24.412Z,12.98
2023-03-08T05:28:51.734Z,14.50
2023-03-08T05:31:22.026Z,12.52
2023-03-08T05:33:51.963Z,11.32
2023-03-08T05:36:25.348Z,13.85
2023-03-08T05:38:55.193Z,14.90
2023-03-08T05:41:25.515Z,12.25
2023-03-08T05:43:54.666Z,11.60
2023-03-08T05:46:21.769Z,13.13
2023-03-08T05:48:48.747Z,17.70
2023-03-08T05:51:18.531Z,13.35
2023-03-08T05:53:46.204Z,11.50
2023-03-08T05:56:20.230Z,12.55
2023-03-08T05:58:57.062Z,13.05
2023-03-08T06:01:27.978Z,13.55
2023-03-08T06:04:00.012Z,12.88
2023-03-08T06:06:30.783Z,14.85
2023-03-08T06:09:00.152Z,16.48
2023-03-08T06:11:26.752Z,16.77
2023-03-08T06:13:55.679Z,19.15
2023-03-08T06:16:24.705Z,17.90
2023-03-08T06:18:51.212Z,18.80
2023-03-08T06:21:19.357Z,17.35
2023-03-08T06:23:50.162Z,17.92
2023-03-08T06:26:16.581Z,18.45
2023-03-08T06:28:44.083Z,21.42
2023-03-08T06:31:14.062Z,20.65
2023-03-08T06:33:40.628Z,22.38
2023-03-08T06:36:16.373Z,21.55
2023-03-08T06:38:45.109Z,21.67
2023-03-08T06:41:13.105Z,22.42
2023-03-08T06:43:39.646Z,25.58
2023-03-08T06:46:07.961Z,22.70
2023-03-08T06:48:35.591Z,27.98
2023-03-08T06:51:02.128Z,22.80
2023-03-08T06:53:28.484Z,22.38
2023-03-08T06:56:02.875Z,23.83
2023-03-08T06:58:31.441Z,23.30
2023-03-08T07:00:59.997Z,23.58
2023-03-08T07:03:27.712Z,22.58
2023-03-08T07:06:02.210Z,22.50
2023-03-08T07:08:28.768Z,20.58
2023-03-08T07:10:55.233Z,22.45
2023-03-08T07:13:23.549Z,23.08
2023-03-08T07:15:53.021Z,23.88
2023-03-08T07:18:19.839Z,25.67
2023-03-08T07:20:50.991Z,25.80
2023-03-08T07:25:43.537Z,25.15
2023-03-08T07:28:09.827Z,29.83
2023-03-08T07:30:36.166Z,29.48
2023-03-08T07:33:02.645Z,30.58
2023-03-08T07:35:29.109Z,31.95
2023-03-08T07:37:55.473Z,36.53
2023-03-08T07:40:21.925Z,29.17
2023-03-08T07:42:48.979Z,34.35
2023-03-08T07:45:29.006Z,32.83
2023-03-08T07:47:55.375Z,31.08
2023-03-08T07:50:21.930Z,29.15
2023-03-08T07:52:49.046Z,33.65
2023-03-08T07:55:15.795Z,37.85
2023-03-08T07:57:42.082Z,34.80
2023-03-08T08:00:09.419Z,37.80
2023-03-08T08:02:38.898Z,41.60
2023-03-08T08:05:06.077Z,41.75
2023-03-08T08:07:32.460Z,48.13
2023-03-08T08:09:58.773Z,48.35
2023-03-08T08:12:25.104Z,58.97
2023-03-08T08:14:52.713Z,49.92
2023-03-08T08:17:20.385Z,66.97
2023-03-08T08:19:47.000Z,100.10
2023-03-08T08:22:13.479Z,63.42
2023-03-08T08:24:39.848Z,126.53
2023-03-08T08:27:06.218Z,92.97
2023-03-08T08:29:32.563Z,73.05
2023-03-08T08:31:58.887Z,98.05
2023-03-08T08:34:25.376Z,83.88
2023-03-08T08:36:51.737Z,106.10
2023-03-08T08:39:18.173Z,52.28
2023-03-08T08:41:44.492Z,69.13
2023-03-08T08:44:10.833Z,56.00
2023-03-08T08:46:38.014Z,70.07
2023-03-08T08:49:07.110Z,37.83
2023-03-08T08:51:33.819Z,55.70
2023-03-08T08:54:00.205Z,21.90
2023-03-08T08:56:28.814Z,26.67
2023-03-08T08:59:00.534Z,24.88
2023-03-08T09:01:29.720Z,21.80
2023-03-08T09:03:56.211Z,19.58
2023-03-08T09:06:24.769Z,20.52
2023-03-08T09:08:52.879Z,15.32
2023-03-08T09:11:19.174Z,14.48
2023-03-08T09:13:45.466Z,12.70
2023-03-08T09:16:28.286Z,13.23
2023-03-08T09:18:56.695Z,12.32
2023-03-08T09:21:23.968Z,11.80
2023-03-08T09:23:50.938Z,11.40
2023-03-08T09:26:18.236Z,9.73
2023-03-08T09:28:44.934Z,11.75
2023-03-08T09:31:18.081Z,9.73
2023-03-08T09:33:51.689Z,12.25
2023-03-08T09:36:18.520Z,10.05
2023-03-08T09:38:50.404Z,10.10
2023-03-08T09:41:20.720Z,12.45
2023-03-08T09:44:08.437Z,11.57
2023-03-08T09:46:40.989Z,12.82
2023-03-08T09:49:13.291Z,10.77
2023-03-08T09:51:45.869Z,12.68
2023-03-08T09:54:18.595Z,11.38
2023-03-08T09:56:53.137Z,7.82
2023-03-08T09:59:26.664Z,9.82
2023-03-08T10:02:23.714Z,10.35
2023-03-08T10:05:15.146Z,10.02
2023-03-08T10:10:51.023Z,9.88
2023-03-08T10:13:40.889Z,10.85
2023-03-08T10:16:24.638Z,11.23
2023-03-08T10:19:12.870Z,8.70
2023-03-08T10:21:41.850Z,10.95
2023-03-08T10:24:18.407Z,13.90
2023-03-08T10:26:45.433Z,13.60
2023-03-08T10:29:13.067Z,21.33
2023-03-08T10:31:42.318Z,19.17
2023-03-08T10:34:08.586Z,12.95
2023-03-08T10:36:35.042Z,11.02
2023-03-08T10:39:09.785Z,10.77
2023-03-08T10:41:41.207Z,9.10
2023-03-08T10:44:14.566Z,10.88
2023-03-08T10:46:49.475Z,13.15
2023-03-08T10:49:18.733Z,14.40
2023-03-08T10:51:55.100Z,9.10
2023-03-08T10:54:21.449Z,8.95
2023-03-08T10:57:02.857Z,10.88
2023-03-08T10:59:32.925Z,7.38
2023-03-08T11:02:15.292Z,8.52
2023-03-08T11:04:58.533Z,8.40
2023-03-08T11:07:32.724Z,9.68
2023-03-08T11:10:19.871Z,7.43
2023-03-08T11:12:46.333Z,6.95
2023-03-08T11:15:17.490Z,6.63
2023-03-08T11:20:30.454Z,6.68
2023-03-08T11:23:15.775Z,9.82
2023-03-08T11:25:48.606Z,5.80
2023-03-08T11:28:32.306Z,5.60
2023-03-08T11:31:14.990Z,5.03
2023-03-08T11:33:53.375Z,5.10
2023-03-08T11:36:38.188Z,5.55
2023-03-08T11:39:11.103Z,6.10
2023-03-08T11:41:58.877Z,5.65
2023-03-08T11:44:34.422Z,5.53
2023-03-08T11:47:12.965Z,4.75
2023-03-08T11:50:05.676Z,3.78
2023-03-08T11:52:50.770Z,5.22
2023-03-08T11:55:36.388Z,4.90
2023-03-08T11:58:20.851Z,4.70
2023-03-08T12:00:50.001Z,4.93
2023-03-08T12:03:20.219Z,5.50
2023-03-08T12:05:56.228Z,4.80
2023-03-08T12:08:31.289Z,3.55
2023-03-08T12:11:06.787Z,7.15
2023-03-08T12:13:46.339Z,4.78
2023-03-08T12:16:32.401Z,7.32
2023-03-08T12:19:29.243Z,4.82
2023-03-08T12:22:07.437Z,7.65
2023-03-08T12:24:49.676Z,5.43
2023-03-08T12:27:33.200Z,8.57
2023-03-08T12:30:17.745Z,6.03
2023-03-08T12:32:45.652Z,6.43
2023-03-08T12:35:37.508Z,10.45
2023-03-08T12:38:17.395Z,13.68
2023-03-08T12:40:52.380Z,17.58
2023-03-08T12:43:21.501Z,16.50
2023-03-08T12:45:56.823Z,11.93
2023-03-08T12:48:37.463Z,16.20
2023-03-08T12:51:13.137Z,10.10
2023-03-08T12:53:51.729Z,11.32
2023-03-08T12:56:31.558Z,16.13
2023-03-08T12:59:18.137Z,13.00
2023-03-08T13:01:46.995Z,9.80
2023-03-08T13:04:40.007Z,10.35
2023-03-08T13:07:28.203Z,9.30
2023-03-08T13:10:18.230Z,8.45
2023-03-08T13:12:59.597Z,9.10
2023-03-08T13:18:08.669Z,11.35
2023-03-08T13:20:42.080Z,10.15
2023-03-08T13:23:23.056Z,11.25
2023-03-08T13:26:40.541Z,11.35
2023-03-08T13:29:18.725Z,10.07
2023-03-08T13:31:46.602Z,11.10
2023-03-08T13:34:26.219Z,12.30
2023-03-08T13:36:52.923Z,22.52
2023-03-08T13:39:22.412Z,40.40
2023-03-08T13:41:49.141Z,20.95
2023-03-08T13:44:21.206Z,19.80
2023-03-08T13:46:49.945Z,15.98
2023-03-08T13:49:25.988Z,51.90
2023-03-08T13:51:55.881Z,24.00
2023-03-08T13:54:30.384Z,12.73
2023-03-08T13:57:03.045Z,11.93
2023-03-08T13:59:30.134Z,8.75
2023-03-08T14:01:57.064Z,14.40
2023-03-08T14:04:26.368Z,14.20
2023-03-08T14:06:55.408Z,11.10
2023-03-08T14:09:22.299Z,11.20
2023-03-08T14:12:02.800Z,11.07
2023-03-08T14:14:33.356Z,31.50
2023-03-08T14:17:00.356Z,54.40
2023-03-08T14:19:32.926Z,48.22
2023-03-08T14:22:11.411Z,17.48
2023-03-08T14:24:38.549Z,31.08
2023-03-08T14:27:13.920Z,14.30
2023-03-08T14:29:44.228Z,8.50
2023-03-08T14:32:10.706Z,7.13
2023-03-08T14:34:41.334Z,8.30
2023-03-08T14:37:29.017Z,7.68
2023-03-08T14:40:26.317Z,7.10
2023-03-08T14:42:55.702Z,20.63
2023-03-08T14:45:26.761Z,28.25
2023-03-08T14:47:58.524Z,24.48
2023-03-08T14:50:26.725Z,29.35
2023-03-08T14:52:55.746Z,20.63
2023-03-08T14:55:23.841Z,20.58
2023-03-08T14:57:58.066Z,21.35
2023-03-08T15:00:27.507Z,25.20
2023-03-08T15:02:53.886Z,24.52
2023-03-08T15:05:28.791Z,28.45
2023-03-08T15:07:57.537Z,29.70
2023-03-08T15:10:29.455Z,32.22
2023-03-08T15:12:55.982Z,27.25
2023-03-08T15:15:22.696Z,23.83
2023-03-08T15:17:49.646Z,33.13
2023-03-08T15:20:16.698Z,30.23
2023-03-08T15:22:48.023Z,26.20
2023-03-08T15:25:16.597Z,22.95
2023-03-08T15:27:43.026Z,23.63
2023-03-08T15:30:15.252Z,25.77
2023-03-08T15:32:41.760Z,32.45
2023-03-08T15:35:08.676Z,37.70
2023-03-08T15:37:35.003Z,23.70
2023-03-08T15:40:01.333Z,26.20
2023-03-08T15:42:27.625Z,40.10
2023-03-08T15:44:53.906Z,40.70
2023-03-08T15:47:21.462Z,27.15
2023-03-08T15:49:51.233Z,38.17
2023-03-08T15:52:17.559Z,57.05
2023-03-08T15:54:47.562Z,32.83
2023-03-08T15:57:14.112Z,33.35
2023-03-08T15:59:41.112Z,31.10
2023-03-08T16:02:13.756Z,35.10
2023-03-08T16:04:45.626Z,33.72
2023-03-08T16:07:13.614Z,29.85
2023-03-08T16:09:40.090Z,28.65
2023-03-08T16:12:06.564Z,32.55
2023-03-08T16:14:33.155Z,32.33
2023-03-08T16:16:59.531Z,37.30
2023-03-08T16:19:25.869Z,33.53
2023-03-08T16:21:52.192Z,23.45
2023-03-08T16:24:18.567Z,19.52
2023-03-08T16:26:45.050Z,18.73
2023-03-08T16:29:11.408Z,15.60
2023-03-08T16:31:38.057Z,13.60
2023-03-08T16:34:05.376Z,13.05
2023-03-08T16:36:32.716Z,12.30
2023-03-08T16:38:59.074Z,12.52
2023-03-08T16:41:26.167Z,9.23
2023-03-08T16:43:53.396Z,9.48
2023-03-08T16:46:22.307Z,7.03
2023-03-08T16:48:51.116Z,9.32
2023-03-08T16:51:19.614Z,24.88
2023-03-08T16:53:46.364Z,46.65
2023-03-08T16:56:24.351Z,48.22
2023-03-08T16:58:51.744Z,27.20
2023-03-08T17:01:19.027Z,126.53
2023-03-08T17:03:45.904Z,101.45
2023-03-08T17:06:14.878Z,44.13
2023-03-08T17:08:41.212Z,23.67
2023-03-08T17:11:17.643Z,19.90
2023-03-08T17:13:50.645Z,20.75
2023-03-08T17:16:22.631Z,17.75
2023-03-08T17:18:50.122Z,21.15
2023-03-08T17:21:17.476Z,20.25
2023-03-08T17:23:43.907Z,32.75
2023-03-08T17:26:12.211Z,26.08
2023-03-08T17:28:39.969Z,17.17
2023-03-08T17:31:15.390Z,13.95
2023-03-08T17:33:42.110Z,15.88
2023-03-08T17:36:10.054Z,31.33
2023-03-08T17:38:36.900Z,42.00
2023-03-08T17:41:05.771Z,61.38
2023-03-08T17:43:32.217Z,88.88
2023-03-08T17:46:03.558Z,39.13
2023-03-08T17:48:30.824Z,24.23
2023-03-08T17:51:09.172Z,31.52
2023-03-08T17:53:35.612Z,33.35
2023-03-08T17:56:05.747Z,23.10
2023-03-08T17:58:32.078Z,13.75
2023-03-08T18:01:06.958Z,13.20
2023-03-08T18:03:33.906Z,12.27
2023-03-08T18:06:00.216Z,11.18
2023-03-08T18:08:26.524Z,14.55
2023-03-08T18:10:52.812Z,11.43
2023-03-08T18:13:19.235Z,11.50
2023-03-08T18:15:45.593Z,10.68
2023-03-08T18:18:11.917Z,11.10
2023-03-08T18:20:38.241Z,11.02
2023-03-08T18:23:06.846Z,11.73
2023-03-08T18:25:34.921Z,15.00
2023-03-08T18:28:01.246Z,15.20
2023-03-08T18:30:27.835Z,13.70
2023-03-08T18:32:54.138Z,37.03
2023-03-08T18:35:20.551Z,28.55
2023-03-08T18:37:46.836Z,18.73
2023-03-08T18:40:13.305Z,17.05
2023-03-08T18:42:39.942Z,17.70
2023-03-08T18:45:09.509Z,22.65
2023-03-08T18:47:38.110Z,18.98
2023-03-08T18:50:06.202Z,20.48
2023-03-08T18:52:32.703Z,16.75
2023-03-08T18:54:59.104Z,20.73
2023-03-08T18:57:25.463Z,21.38
2023-03-08T18:59:51.857Z,20.52
2023-03-08T19:02:18.562Z,20.75
2023-03-08T19:04:45.030Z,75.57
2023-03-08T19:07:12.929Z,54.60
2023-03-08T19:09:43.405Z,29.20
2023-03-08T19:12:10.616Z,28.27
2023-03-08T19:14:37.333Z,25.15
2023-03-08T19:17:03.875Z,53.58
2023-03-08T19:19:30.384Z,38.85
2023-03-08T19:21:56.719Z,34.00
2023-03-08T19:24:23.044Z,23.00
2023-03-08T19:26:52.485Z,24.08
2023-03-08T19:29:21.699Z,22.02
2023-03-08T19:31:53.755Z,21.30
2023-03-08T19:34:23.037Z,23.45
2023-03-08T19:36:50.675Z,23.15
2023-03-08T19:39:21.483Z,43.22
2023-03-08T19:41:49.670Z,48.28
2023-03-08T19:44:15.992Z,43.03
2023-03-08T19:46:42.692Z,33.47
2023-03-08T19:49:12.881Z,29.60
2023-03-08T19:51:39.242Z,23.92
2023-03-08T19:54:06.641Z,37.53
2023-03-08T19:56:33.406Z,28.00
2023-03-08T19:58:59.922Z,25.55
2023-03-08T20:01:27.294Z,23.90
2023-03-08T20:03:53.896Z,23.73
2023-03-08T20:06:31.646Z,29.83
2023-03-08T20:08:59.797Z,31.15
2023-03-08T20:11:26.171Z,32.50
2023-03-08T20:13:52.540Z,31.63
2023-03-08T20:16:20.677Z,29.85
2023-03-08T20:18:50.279Z,28.13
2023-03-08T20:21:18.365Z,29.00
2023-03-08T20:23:46.147Z,42.88
2023-03-08T20:26:13.039Z,57.63
2023-03-08T20:28:39.619Z,39.67
2023-03-08T20:31:13.247Z,61.88
2023-03-08T20:33:39.798Z,46.97
2023-03-08T20:36:06.825Z,37.40
2023-03-08T20:38:33.300Z,49.50
2023-03-08T20:41:06.003Z,60.88
2023-03-08T20:43:33.308Z,53.38
2023-03-08T20:46:05.599Z,41.47
2023-03-08T20:48:36.784Z,52.85
2023-03-08T20:51:04.673Z,56.38
2023-03-08T20:53:32.882Z,39.05
2023-03-08T20:55:59.276Z,32.47
2023-03-08T20:58:26.207Z,35.22
2023-03-08T21:00:52.746Z,42.28
2023-03-08T21:03:19.197Z,48.58
2023-03-08T21:05:45.507Z,38.80
2023-03-08T21:08:11.816Z,35.08
2023-03-08T21:10:39.320Z,36.38
2023-03-08T21:13:06.537Z,34.53
2023-03-08T21:15:34.749Z,37.35
2023-03-08T21:18:01.112Z,34.88
2023-03-08T21:20:27.640Z,36.95
2023-03-08T21:22:54.030Z,39.40
2023-03-08T21:25:20.366Z,39.03
2023-03-08T21:27:46.709Z,35.85
2023-03-08T21:30:13.244Z,37.33
2023-03-08T21:32:39.600Z,35.20
2023-03-08T21:35:06.432Z,39.05
2023-03-08T21:37:32.785Z,32.85
2023-03-08T21:39:59.100Z,37.22
2023-03-08T21:42:25.501Z,35.92
2023-03-08T21:44:51.857Z,42.78
2023-03-08T21:47:18.188Z,43.70
2023-03-08T21:49:44.572Z,38.35
2023-03-08T21:52:10.864Z,43.92
2023-03-08T21:54:37.162Z,46.40
2023-03-08T21:57:03.492Z,39.38
2023-03-08T21:59:30.255Z,38.97
2023-03-08T22:01:59.672Z,40.55
2023-03-08T22:04:27.784Z,38.28
2023-03-08T22:06:55.527Z,40.40
2023-03-08T22:09:22.548Z,38.83
2023-03-08T22:11:48.833Z,37.80
2023-03-08T22:14:15.160Z,38.85
2023-03-08T22:16:41.595Z,37.33
2023-03-08T22:19:10.018Z,43.25
2023-03-08T22:21:36.434Z,42.78
2023-03-08T22:24:02.834Z,38.40
2023-03-08T22:26:30.920Z,39.28
2023-03-08T22:28:57.538Z,41.03
2023-03-08T22:31:26.073Z,42.45
2023-03-08T22:33:52.986Z,45.85
2023-03-08T22:36:20.389Z,41.35
2023-03-08T22:38:46.784Z,42.33
2023-03-08T22:41:16.351Z,46.40
2023-03-08T22:43:43.260Z,69.47
2023-03-08T22:46:12.957Z,80.47
2023-03-08T22:48:39.325Z,73.40
2023-03-08T22:51:11.244Z,58.03
2023-03-08T22:53:38.491Z,64.57
2023-03-08T22:56:05.178Z,84.32
2023-03-08T22:58:31.465Z,77.32
2023-03-08T23:00:57.869Z,70.93
2023-03-08T23:03:24.173Z,62.63
2023-03-08T23:05:50.511Z,68.63
2023-03-08T23:08:16.807Z,64.00
2023-03-08T23:10:43.141Z,69.32
2023-03-08T23:13:12.410Z,70.28
2023-03-08T23:18:06.982Z,62.72
2023-03-08T23:20:33.270Z,56.92
2023-03-08T23:22:59.572Z,47.63
2023-03-08T23:25:25.925Z,66.35
2023-03-08T23:27:52.242Z,51.15
2023-03-08T23:30:18.589Z,54.03
2023-03-08T23:32:44.995Z,53.72
2023-03-08T23:35:12.409Z,54.53
2023-03-08T23:37:42.253Z,46.83
2023-03-08T23:40:11.347Z,47.28
2023-03-08T23:42:38.422Z,40.67
2023-03-08T23:45:06.136Z,42.78
2023-03-08T23:47:34.077Z,44.38
2023-03-08T23:50:00.596Z,49.10
2023-03-08T23:52:27.745Z,43.92
2023-03-08T23:54:54.306Z,43.97
2023-03-08T23:57:20.615Z,41.88
2023-03-08T23:59:46.902Z,44.35
